Time;durP1;ratioP1;P1;durP2;ratioP2;P2;SDS_P1;SDS_P2;PMS_P1;PMS_P2;Temp;Humidity;BMP_temperature;BMP_pressure;BME280_temperature;BME280_humidity;BME280_pressure;Samples;Min_cycle;Max_cycle;Signal;HPM_P1;HPM_P2
2023/01/06 00:00:35;;;;;;;7.32;4.78;;;9.10;99.90;;;;;;4950136;28;20066;-73
2023/01/06 00:03:02;;;;;;;5.30;3.10;;;9.10;99.90;;;;;;4928134;28;20047;-70
2023/01/06 00:05:30;;;;;;;5.72;3.42;;;9.20;99.90;;;;;;4979025;28;20567;-70
2023/01/06 00:07:57;;;;;;;5.35;3.40;;;9.20;99.90;;;;;;4953262;28;20486;-71
2023/01/06 00:10:24;;;;;;;5.07;3.20;;;9.20;99.90;;;;;;4951120;28;20180;-71
2023/01/06 00:12:52;;;;;;;5.50;3.45;;;9.30;99.90;;;;;;4953497;28;20315;-70
2023/01/06 00:15:19;;;;;;;4.75;3.38;;;9.20;99.90;;;;;;4951874;28;20062;-72
2023/01/06 00:17:46;;;;;;;7.05;4.50;;;9.20;99.90;;;;;;4954442;28;20047;-71
2023/01/06 00:20:13;;;;;;;6.28;4.50;;;9.20;99.90;;;;;;4951938;28;20329;-71
2023/01/06 00:22:40;;;;;;;9.07;5.47;;;9.20;99.90;;;;;;4959517;28;20069;-71
2023/01/06 00:25:10;;;;;;;9.30;6.32;;;9.20;99.90;;;;;;4951169;28;20496;-70
2023/01/06 00:27:38;;;;;;;10.88;6.13;;;9.20;99.90;;;;;;4948541;28;20066;-72
2023/01/06 00:30:06;;;;;;;10.95;6.80;;;9.20;99.90;;;;;;4950873;28;20206;-69
2023/01/06 00:32:33;;;;;;;13.15;7.65;;;9.30;99.90;;;;;;4955715;28;20039;-70
2023/01/06 00:35:00;;;;;;;14.10;8.63;;;9.30;99.90;;;;;;4928731;28;20051;-72
2023/01/06 00:37:27;;;;;;;12.57;8.38;;;9.30;99.90;;;;;;4953661;28;20496;-71
2023/01/06 00:39:53;;;;;;;16.30;9.95;;;9.30;99.90;;;;;;4934594;28;20055;-71
2023/01/06 00:42:21;;;;;;;17.80;10.63;;;9.30;99.90;;;;;;4951173;28;20520;-71
2023/01/06 00:44:48;;;;;;;15.75;10.27;;;9.20;99.90;;;;;;4962436;28;20070;-72
2023/01/06 00:47:15;;;;;;;14.30;9.48;;;9.20;99.90;;;;;;4946650;28;20529;-71
2023/01/06 00:49:42;;;;;;;20.10;12.73;;;9.10;99.90;;;;;;4953822;28;20114;-72
2023/01/06 00:52:09;;;;;;;18.42;10.40;;;9.10;99.90;;;;;;4979776;28;20049;-71
2023/01/06 00:54:36;;;;;;;21.17;12.75;;;9.10;99.90;;;;;;4950867;28;20047;-72
2023/01/06 00:57:05;;;;;;;17.35;11.40;;;9.00;99.90;;;;;;4957853;28;20457;-71
2023/01/06 00:59:32;;;;;;;19.73;13.10;;;9.00;99.90;;;;;;4950631;28;20039;-72
2023/01/06 01:02:01;;;;;;;19.60;11.63;;;9.00;99.90;;;;;;4953406;28;20126;-70
2023/01/06 01:04:28;;;;;;;18.35;11.70;;;9.00;99.90;;;;;;4952947;28;20097;-72
2023/01/06 01:06:55;;;;;;;16.60;11.27;;;9.00;99.90;;;;;;4961876;28;20050;-71
2023/01/06 01:09:25;;;;;;;20.55;11.38;;;9.00;99.90;;;;;;4977078;28;20385;-71
2023/01/06 01:12:11;;;;;;;26.67;11.60;;;9.00;99.90;;;;;;4943831;28;20233;-72
2023/01/06 01:14:46;;;;;;;19.80;10.52;;;9.00;99.90;;;;;;4955749;28;20053;-70
2023/01/06 01:17:18;;;;;;;23.50;13.33;;;8.90;99.90;;;;;;4948291;28;20043;-71
2023/01/06 01:19:46;;;;;;;21.55;11.98;;;8.90;99.90;;;;;;4954311;28;20476;-72
2023/01/06 01:22:13;;;;;;;26.83;13.80;;;8.90;99.90;;;;;;4950590;28;20398;-72
2023/01/06 01:24:40;;;;;;;25.27;15.27;;;8.90;99.90;;;;;;4959138;28;20062;-71
2023/01/06 01:27:07;;;;;;;28.73;14.90;;;8.90;99.90;;;;;;4939799;28;20057;-69
2023/01/06 01:29:33;;;;;;;33.78;16.63;;;8.90;99.90;;;;;;4956935;28;20195;-71
2023/01/06 01:32:00;;;;;;;34.45;18.52;;;8.90;99.90;;;;;;4989291;28;20157;-71
2023/01/06 01:34:27;;;;;;;34.63;17.60;;;8.90;99.90;;;;;;4960254;28;20055;-71
2023/01/06 01:36:55;;;;;;;34.95;19.23;;;8.90;99.90;;;;;;4968940;28;20417;-70
2023/01/06 01:39:25;;;;;;;40.15;20.27;;;8.90;99.90;;;;;;4950853;28;20428;-72
2023/01/06 01:41:53;;;;;;;45.15;20.35;;;8.90;99.90;;;;;;4936113;28;20496;-71
2023/01/06 01:44:58;;;;;;;38.08;19.55;;;8.90;99.90;;;;;;4956993;28;20645;-70
2023/01/06 01:47:46;;;;;;;28.05;16.23;;;8.80;99.90;;;;;;4958489;28;20146;-70
2023/01/06 01:50:30;;;;;;;30.80;17.95;;;8.80;99.90;;;;;;4947686;28;20062;-71
2023/01/06 01:53:04;;;;;;;34.08;18.10;;;8.80;99.90;;;;;;4957142;28;20047;-71
2023/01/06 01:55:33;;;;;;;34.47;17.75;;;8.80;99.90;;;;;;4956228;28;20039;-72
2023/01/06 01:58:01;;;;;;;29.38;17.65;;;8.90;99.90;;;;;;4980049;28;20065;-70
2023/01/06 02:00:28;;;;;;;26.00;15.40;;;8.90;99.90;;;;;;4980558;28;20061;-71
2023/01/06 02:02:55;;;;;;;27.50;15.38;;;8.90;99.90;;;;;;4958355;28;20505;-71
2023/01/06 02:05:25;;;;;;;23.55;13.02;;;8.80;99.90;;;;;;4954133;28;20039;-70
2023/01/06 02:07:56;;;;;;;28.27;15.20;;;8.90;99.90;;;;;;4961911;28;20117;-70
2023/01/06 02:10:25;;;;;;;18.23;11.05;;;8.90;99.90;;;;;;4969328;28;20157;-72
2023/01/06 02:12:55;;;;;;;20.88;12.63;;;8.80;99.90;;;;;;4951016;28;20463;-71
2023/01/06 02:15:28;;;;;;;26.45;13.52;;;8.80;99.90;;;;;;4963617;28;20079;-71
2023/01/06 02:18:04;;;;;;;16.02;8.48;;;8.80;99.90;;;;;;4953369;28;20300;-71
2023/01/06 02:20:42;;;;;;;14.35;8.32;;;8.80;99.90;;;;;;4941325;28;20043;-71
2023/01/06 02:23:18;;;;;;;13.90;6.85;;;8.80;99.90;;;;;;4956970;28;20050;-69
2023/01/06 02:26:22;;;;;;;12.23;6.63;;;8.80;99.90;;;;;;4948271;28;20051;-70
2023/01/06 02:28:51;;;;;;;10.73;5.07;;;8.80;99.90;;;;;;4972069;28;20043;-69
2023/01/06 02:31:22;;;;;;;7.80;4.22;;;8.80;99.90;;;;;;4984931;28;20293;-70
2023/01/06 02:34:12;;;;;;;10.18;5.07;;;8.80;99.90;;;;;;4954335;28;20067;-70
2023/01/06 02:37:03;;;;;;;13.05;3.97;;;8.80;99.90;;;;;;4987088;28;20047;-69
2023/01/06 02:39:36;;;;;;;10.90;3.45;;;8.90;99.90;;;;;;4965438;28;20284;-70
2023/01/06 02:42:19;;;;;;;5.20;2.40;;;8.90;99.90;;;;;;4948719;28;20063;-69
2023/01/06 02:45:15;;;;;;;8.25;3.15;;;8.90;99.90;;;;;;4954530;28;20055;-70
2023/01/06 02:47:58;;;;;;;6.90;2.90;;;8.90;99.90;;;;;;4901993;28;20043;-69
2023/01/06 02:51:16;;;;;;;8.40;3.08;;;8.90;99.90;;;;;;4952395;28;20659;-70
2023/01/06 02:54:09;;;;;;;4.60;2.35;;;8.90;99.90;;;;;;4941607;28;20106;-70
2023/01/06 02:56:43;;;;;;;5.18;2.55;;;9.00;99.90;;;;;;4939382;28;20046;-73
2023/01/06 02:59:22;;;;;;;6.28;2.17;;;9.00;99.90;;;;;;4958827;28;20062;-71
2023/01/06 03:01:51;;;;;;;3.05;2.65;;;9.00;99.90;;;;;;4953290;28;20276;-69
2023/01/06 03:04:23;;;;;;;5.15;3.20;;;9.00;99.90;;;;;;4955208;28;20127;-69
2023/01/06 03:06:55;;;;;;;7.82;2.80;;;9.00;99.90;;;;;;4960775;28;20097;-70
2023/01/06 03:09:27;;;;;;;3.65;3.13;;;9.10;99.90;;;;;;4953856;28;20142;-70
2023/01/06 03:11:54;;;;;;;5.43;3.63;;;9.10;99.90;;;;;;4955785;28;20423;-70
2023/01/06 03:14:34;;;;;;;5.10;3.42;;;9.10;99.90;;;;;;4977627;23;20460;-69
2023/01/06 03:17:01;;;;;;;5.10;4.63;;;9.10;99.90;;;;;;4953330;28;20097;-69
2023/01/06 03:19:30;;;;;;;5.32;3.65;;;9.10;99.90;;;;;;4954725;28;20046;-69
2023/01/06 03:22:00;;;;;;;4.93;4.50;;;9.10;99.90;;;;;;4960831;28;20327;-69
2023/01/06 03:24:27;;;;;;;6.50;4.45;;;9.10;99.90;;;;;;4971616;28;20083;-70
2023/01/06 03:26:54;;;;;;;9.57;4.78;;;9.20;99.90;;;;;;4976656;28;20522;-69
2023/01/06 03:29:22;;;;;;;5.55;5.05;;;9.10;99.90;;;;;;4968956;28;20043;-69
2023/01/06 03:31:55;;;;;;;5.85;5.28;;;9.10;99.90;;;;;;4971943;28;20045;-69
2023/01/06 03:34:31;;;;;;;7.18;6.55;;;9.20;99.90;;;;;;4974441;28;20046;-69
2023/01/06 03:37:06;;;;;;;7.22;6.60;;;9.20;99.90;;;;;;4987976;28;20519;-69
2023/01/06 03:40:08;;;;;;;9.25;6.85;;;9.20;99.90;;;;;;4975016;28;20050;-71
2023/01/06 03:43:12;;;;;;;7.30;6.80;;;9.20;99.90;;;;;;4974889;28;20043;-71
2023/01/06 03:46:10;;;;;;;7.30;6.80;;;9.20;99.90;;;;;;4962747;28;20065;-69
2023/01/06 03:48:58;;;;;;;9.35;7.88;;;9.20;99.90;;;;;;4975284;28;20580;-69
2023/01/06 03:52:04;;;;;;;7.55;7.07;;;9.20;99.90;;;;;;4971955;28;20365;-69
2023/01/06 03:54:59;;;;;;;8.85;8.23;;;9.20;99.90;;;;;;4975125;28;20412;-71
2023/01/06 03:57:36;;;;;;;9.30;8.10;;;9.20;99.90;;;;;;4968021;28;20979;-71
2023/01/06 04:00:11;;;;;;;9.43;8.77;;;9.20;99.90;;;;;;4969110;28;20062;-67
2023/01/06 04:02:47;;;;;;;9.85;9.20;;;9.30;99.90;;;;;;4981308;28;20137;-69
2023/01/06 04:05:23;;;;;;;9.75;9.07;;;9.30;99.90;;;;;;4972727;28;20124;-69
2023/01/06 04:07:50;;;;;;;9.90;9.23;;;9.30;99.90;;;;;;4972281;28;20497;-69
2023/01/06 04:10:21;;;;;;;10.10;9.38;;;9.30;99.90;;;;;;4965029;28;20137;-69
2023/01/06 04:12:51;;;;;;;10.40;9.55;;;9.30;99.90;;;;;;4974192;28;20419;-69
2023/01/06 04:15:25;;;;;;;10.40;9.73;;;9.30;99.90;;;;;;4966882;28;20098;-69
2023/01/06 04:17:54;;;;;;;11.52;10.60;;;9.30;99.90;;;;;;4973039;28;20042;-69
2023/01/06 04:20:28;;;;;;;11.27;10.65;;;9.30;99.90;;;;;;4985628;28;20413;-69
2023/01/06 04:23:10;;;;;;;11.27;10.48;;;9.30;99.90;;;;;;4964693;28;20513;-69
2023/01/06 04:25:39;;;;;;;11.48;10.63;;;9.40;99.90;;;;;;4972024;28;20125;-69
2023/01/06 04:28:12;;;;;;;11.68;10.77;;;9.40;99.90;;;;;;4957802;28;20274;-69
2023/01/06 04:30:39;;;;;;;12.50;11.70;;;9.40;99.90;;;;;;4970327;28;20044;-69
2023/01/06 04:33:06;;;;;;;12.23;11.55;;;9.40;99.90;;;;;;4965824;28;20062;-70
2023/01/06 04:35:35;;;;;;;12.68;11.65;;;9.50;99.90;;;;;;4988904;28;20035;-70
2023/01/06 04:38:04;;;;;;;12.25;11.52;;;9.40;99.90;;;;;;4975482;28;20053;-69
2023/01/06 04:40:31;;;;;;;12.75;11.90;;;9.40;99.90;;;;;;4971020;28;20571;-70
2023/01/06 04:43:03;;;;;;;13.98;12.98;;;9.40;99.90;;;;;;4972681;28;20314;-69
2023/01/06 04:45:31;;;;;;;13.48;12.45;;;9.40;99.90;;;;;;4967304;28;20076;-70
2023/01/06 04:47:58;;;;;;;14.05;12.93;;;9.40;99.90;;;;;;4976293;28;20053;-70
2023/01/06 04:50:24;;;;;;;13.32;12.32;;;9.40;99.90;;;;;;4972111;28;20225;-70
2023/01/06 04:52:51;;;;;;;13.00;12.23;;;9.40;99.90;;;;;;4972441;28;20031;-70
2023/01/06 04:55:18;;;;;;;13.77;12.65;;;9.40;99.90;;;;;;4969899;28;20046;-70
2023/01/06 04:57:44;;;;;;;13.38;12.27;;;9.40;99.90;;;;;;4974772;28;20496;-70
2023/01/06 05:00:11;;;;;;;12.93;12.13;;;9.30;99.90;;;;;;4975460;28;20046;-69
2023/01/06 05:02:38;;;;;;;13.27;12.35;;;9.40;99.90;;;;;;4974233;28;20038;-70
2023/01/06 05:05:05;;;;;;;13.95;13.15;;;9.30;99.90;;;;;;4977442;28;20065;-70
2023/01/06 05:07:32;;;;;;;14.23;13.10;;;9.30;99.90;;;;;;4976448;28;20038;-69
2023/01/06 05:09:59;;;;;;;14.77;13.70;;;9.40;99.90;;;;;;4980136;28;20064;-69
2023/01/06 05:12:26;;;;;;;14.63;13.18;;;9.40;99.90;;;;;;4971213;28;20444;-69
2023/01/06 05:14:52;;;;;;;13.52;12.73;;;9.40;99.90;;;;;;4972556;28;20041;-69
2023/01/06 05:17:19;;;;;;;14.18;13.40;;;9.30;99.90;;;;;;4974701;28;20042;-69
2023/01/06 05:19:45;;;;;;;14.07;13.27;;;9.30;99.90;;;;;;4977912;28;20202;-69
2023/01/06 05:22:12;;;;;;;13.98;13.02;;;9.40;99.90;;;;;;4970071;28;20034;-69
2023/01/06 05:24:39;;;;;;;14.10;13.15;;;9.40;99.90;;;;;;4978152;28;20038;-69
2023/01/06 05:27:06;;;;;;;14.07;13.18;;;9.40;99.90;;;;;;4977446;28;20050;-70
2023/01/06 05:29:34;;;;;;;15.35;14.27;;;9.40;99.90;;;;;;4974033;28;20138;-69
2023/01/06 05:32:01;;;;;;;15.25;14.43;;;9.30;99.90;;;;;;4973729;28;20034;-69
2023/01/06 05:34:28;;;;;;;15.70;14.60;;;9.30;99.90;;;;;;4970043;28;20046;-69
2023/01/06 05:36:55;;;;;;;15.82;14.73;;;9.40;99.90;;;;;;4966700;28;20031;-69
2023/01/06 05:39:22;;;;;;;16.38;15.35;;;9.30;99.90;;;;;;4971382;28;20066;-69
2023/01/06 05:41:49;;;;;;;17.27;15.75;;;9.40;99.90;;;;;;4975094;28;20038;-69
2023/01/06 05:44:15;;;;;;;17.05;15.90;;;9.40;99.90;;;;;;4975247;28;20630;-69
2023/01/06 05:46:43;;;;;;;16.40;15.48;;;9.40;99.90;;;;;;4973685;28;20049;-69
2023/01/06 05:49:10;;;;;;;17.20;15.77;;;9.40;99.90;;;;;;4971952;28;20507;-71
2023/01/06 05:51:37;;;;;;;17.77;16.42;;;9.40;99.90;;;;;;4971146;28;20043;-69
2023/01/06 05:54:07;;;;;;;17.15;16.25;;;9.40;99.90;;;;;;5010275;28;20468;-69
2023/01/06 05:56:35;;;;;;;17.95;16.92;;;9.40;99.90;;;;;;4969050;28;20516;-69
2023/01/06 05:59:02;;;;;;;17.60;16.45;;;9.40;99.90;;;;;;4971632;28;20555;-69
2023/01/06 06:01:30;;;;;;;17.70;16.42;;;9.40;99.90;;;;;;4972058;28;20043;-69
2023/01/06 06:03:57;;;;;;;17.90;16.90;;;9.40;99.90;;;;;;4969122;28;20269;-69
2023/01/06 06:06:26;;;;;;;17.15;16.30;;;9.40;99.90;;;;;;4971317;28;20046;-69
2023/01/06 06:08:53;;;;;;;17.40;16.27;;;9.40;99.90;;;;;;4976975;28;20050;-69
2023/01/06 06:11:21;;;;;;;17.83;16.50;;;9.40;99.90;;;;;;4968633;28;20049;-72
2023/01/06 06:13:52;;;;;;;18.10;16.80;;;9.40;99.90;;;;;;4974595;28;20046;-69
2023/01/06 06:16:22;;;;;;;17.20;16.17;;;9.30;99.90;;;;;;4971086;28;20042;-69
2023/01/06 06:18:54;;;;;;;17.17;15.90;;;9.40;99.90;;;;;;4974938;28;20042;-69
2023/01/06 06:21:24;;;;;;;17.17;16.00;;;9.40;99.90;;;;;;4970272;28;20509;-69
2023/01/06 06:23:55;;;;;;;16.70;15.60;;;9.30;99.90;;;;;;4974973;28;20047;-71
2023/01/06 06:26:22;;;;;;;17.02;16.02;;;9.30;99.90;;;;;;4969574;28;20050;-71
2023/01/06 06:28:50;;;;;;;16.08;15.23;;;9.30;99.90;;;;;;4975489;28;20408;-69
2023/01/06 06:31:25;;;;;;;16.00;15.10;;;9.30;99.90;;;;;;4972823;28;20043;-69
2023/01/06 06:33:54;;;;;;;16.92;15.43;;;9.30;99.90;;;;;;4975291;28;20038;-71
2023/01/06 06:36:20;;;;;;;16.25;14.98;;;9.40;99.90;;;;;;4969932;28;20049;-71
2023/01/06 06:38:49;;;;;;;16.80;15.80;;;9.30;99.90;;;;;;4976978;28;20043;-69
2023/01/06 06:41:16;;;;;;;16.15;15.13;;;9.30;99.90;;;;;;4970926;28;20050;-71
2023/01/06 06:43:43;;;;;;;16.50;15.50;;;9.30;99.90;;;;;;4971201;28;20054;-69
2023/01/06 06:46:10;;;;;;;21.73;15.20;;;9.40;99.90;;;;;;4970726;28;20038;-71
2023/01/06 06:48:37;;;;;;;17.52;16.13;;;9.40;99.90;;;;;;4977082;28;20049;-69
2023/01/06 06:51:07;;;;;;;16.20;15.18;;;9.40;99.90;;;;;;4972787;28;20518;-69
2023/01/06 06:53:34;;;;;;;16.75;15.73;;;9.40;99.90;;;;;;4970198;28;20046;-69
2023/01/06 06:56:02;;;;;;;16.90;15.77;;;9.40;99.90;;;;;;4974484;28;20500;-71
2023/01/06 06:58:30;;;;;;;16.65;15.63;;;9.40;99.90;;;;;;4974495;28;20351;-69
2023/01/06 07:00:56;;;;;;;17.00;15.55;;;9.40;99.90;;;;;;4975304;28;20045;-71
2023/01/06 07:03:24;;;;;;;16.38;15.48;;;9.40;99.90;;;;;;4972955;28;20115;-69
2023/01/06 07:05:51;;;;;;;16.13;15.23;;;9.40;99.90;;;;;;4959682;28;20050;-69
2023/01/06 07:08:18;;;;;;;16.30;15.27;;;9.50;99.90;;;;;;4975004;28;20034;-71
2023/01/06 07:10:44;;;;;;;16.30;15.30;;;9.50;99.90;;;;;;4984367;28;20053;-69
2023/01/06 07:13:11;;;;;;;16.55;15.45;;;9.40;99.90;;;;;;4995296;28;20035;-69
2023/01/06 07:15:38;;;;;;;16.83;15.75;;;9.40;99.90;;;;;;5002693;28;20030;-69
2023/01/06 07:18:05;;;;;;;16.67;15.60;;;9.40;99.90;;;;;;4988226;28;20184;-69
2023/01/06 07:20:34;;;;;;;16.15;15.25;;;9.40;99.90;;;;;;4972872;28;20050;-69
2023/01/06 07:23:02;;;;;;;15.93;15.02;;;9.40;99.90;;;;;;4971388;28;20448;-69
2023/01/06 07:25:29;;;;;;;16.88;15.75;;;9.40;99.90;;;;;;4971933;28;20078;-69
2023/01/06 07:27:58;;;;;;;16.15;15.32;;;9.40;99.90;;;;;;4971643;28;20076;-69
2023/01/06 07:30:26;;;;;;;16.60;15.70;;;9.40;99.90;;;;;;4968617;28;20074;-69
2023/01/06 07:32:53;;;;;;;15.70;14.90;;;9.40;99.90;;;;;;4974447;28;20043;-71
2023/01/06 07:35:19;;;;;;;16.45;15.45;;;9.40;99.90;;;;;;4963364;28;20402;-69
2023/01/06 07:37:46;;;;;;;16.23;15.23;;;9.30;99.90;;;;;;4970580;28;20039;-71
2023/01/06 07:40:13;;;;;;;16.40;15.40;;;9.40;99.90;;;;;;4994501;28;20474;-69
2023/01/06 07:42:40;;;;;;;16.08;15.02;;;9.30;99.90;;;;;;4968426;28;20051;-72
2023/01/06 07:45:07;;;;;;;14.95;14.10;;;9.40;99.90;;;;;;4975251;28;20382;-71
2023/01/06 07:47:34;;;;;;;15.38;14.40;;;9.40;99.90;;;;;;4974364;28;20066;-71
2023/01/06 07:50:01;;;;;;;16.35;15.45;;;9.40;99.90;;;;;;4972650;28;20522;-71
2023/01/06 07:52:28;;;;;;;15.02;14.00;;;9.30;99.90;;;;;;4967268;28;20521;-70
2023/01/06 07:54:58;;;;;;;14.48;13.68;;;9.30;99.90;;;;;;4972746;28;20125;-70
2023/01/06 07:57:25;;;;;;;14.43;13.60;;;9.30;99.90;;;;;;4983042;28;20046;-70
2023/01/06 07:59:52;;;;;;;14.75;13.95;;;9.30;99.90;;;;;;4972219;28;20416;-72
2023/01/06 08:02:19;;;;;;;14.32;13.52;;;9.30;99.90;;;;;;4968800;28;20042;-70
2023/01/06 08:04:46;;;;;;;15.35;14.45;;;9.30;99.90;;;;;;4973868;28;20054;-70
2023/01/06 08:07:14;;;;;;;14.45;13.43;;;9.40;99.90;;;;;;4964170;28;20673;-70
2023/01/06 08:09:41;;;;;;;14.77;13.93;;;9.40;99.90;;;;;;4973064;28;20035;-72
2023/01/06 08:12:07;;;;;;;15.27;14.48;;;9.40;99.90;;;;;;4975912;28;20038;-73
2023/01/06 08:14:34;;;;;;;15.50;14.68;;;9.40;99.90;;;;;;4970293;28;20206;-70
2023/01/06 08:17:01;;;;;;;19.85;18.70;;;9.40;99.90;;;;;;4969679;28;20516;-70
2023/01/06 08:19:28;;;;;;;19.17;18.17;;;9.40;99.90;;;;;;4969988;28;21058;-70
2023/01/06 08:21:54;;;;;;;14.40;13.60;;;9.50;99.90;;;;;;4971450;28;20042;-70
2023/01/06 08:24:21;;;;;;;14.35;13.40;;;9.50;99.90;;;;;;4972693;28;20054;-70
2023/01/06 08:26:48;;;;;;;14.18;13.38;;;9.40;99.90;;;;;;4974229;28;20042;-70
2023/01/06 08:29:15;;;;;;;13.75;13.15;;;9.50;99.90;;;;;;4964669;28;20054;-70
2023/01/06 08:31:41;;;;;;;14.68;13.98;;;9.40;99.90;;;;;;4968100;28;20097;-70
2023/01/06 08:34:10;;;;;;;13.85;13.05;;;9.40;99.90;;;;;;4971940;28;20054;-71
2023/01/06 08:36:37;;;;;;;15.68;14.50;;;9.30;99.90;;;;;;4977762;28;20046;-70
2023/01/06 08:39:04;;;;;;;13.65;13.05;;;9.40;99.90;;;;;;4994300;28;20046;-70
2023/01/06 08:41:30;;;;;;;14.32;13.43;;;9.40;99.90;;;;;;4973775;28;20512;-70
2023/01/06 08:43:57;;;;;;;13.57;12.88;;;9.40;99.90;;;;;;4974953;28;20456;-71
2023/01/06 08:46:25;;;;;;;14.25;13.45;;;9.40;99.90;;;;;;4973954;28;20050;-71
2023/01/06 08:48:52;;;;;;;14.02;13.23;;;9.40;99.90;;;;;;4973734;28;20666;-70
2023/01/06 08:51:22;;;;;;;17.65;16.55;;;9.50;99.90;;;;;;4967020;28;20046;-71
2023/01/06 08:53:49;;;;;;;16.50;15.70;;;9.40;99.90;;;;;;4970940;28;20057;-70
2023/01/06 08:56:28;;;;;;;16.13;15.23;;;9.40;99.90;;;;;;4971497;28;20049;-69
2023/01/06 08:59:00;;;;;;;15.95;15.20;;;9.40;99.90;;;;;;4974653;28;20058;-70
2023/01/06 09:01:30;;;;;;;14.93;14.32;;;9.50;99.90;;;;;;4968022;28;20137;-69
2023/01/06 09:03:59;;;;;;;15.20;14.32;;;9.50;99.90;;;;;;4975107;28;20050;-70
2023/01/06 09:06:27;;;;;;;15.38;14.52;;;9.50;99.90;;;;;;4968098;28;20054;-70
2023/01/06 09:08:55;;;;;;;15.02;14.32;;;9.50;99.90;;;;;;4974783;28;20038;-70
2023/01/06 09:11:22;;;;;;;16.20;14.93;;;9.50;99.90;;;;;;4964788;28;20133;-70
2023/01/06 09:13:49;;;;;;;15.38;14.60;;;9.50;99.90;;;;;;4970781;28;20049;-71
2023/01/06 09:16:17;;;;;;;13.80;13.20;;;9.50;99.90;;;;;;5003244;23;20100;-71
2023/01/06 09:18:48;;;;;;;13.25;12.75;;;9.60;99.90;;;;;;4997206;28;20074;-69
2023/01/06 09:21:17;;;;;;;14.07;13.38;;;9.60;99.90;;;;;;4987148;28;20049;-71
2023/01/06 09:23:44;;;;;;;14.30;13.70;;;9.60;99.90;;;;;;4997300;28;20053;-69
2023/01/06 09:26:12;;;;;;;14.02;13.52;;;9.60;99.90;;;;;;4977274;28;20322;-68
2023/01/06 09:28:40;;;;;;;14.32;13.73;;;9.60;99.90;;;;;;4969979;28;20077;-71
2023/01/06 09:31:07;;;;;;;18.10;17.20;;;9.60;99.90;;;;;;5003062;28;20073;-71
2023/01/06 09:33:34;;;;;;;13.20;12.50;;;9.60;99.90;;;;;;4970341;28;20184;-71
2023/01/06 09:36:04;;;;;;;12.80;12.20;;;9.60;99.90;;;;;;4972654;28;20054;-71
2023/01/06 09:38:30;;;;;;;13.73;13.10;;;9.60;99.90;;;;;;4975747;28;20970;-71
2023/01/06 09:41:11;;;;;;;12.75;12.25;;;9.60;99.90;;;;;;4970787;28;20196;-71
2023/01/06 09:43:55;;;;;;;12.70;12.10;;;9.60;99.90;;;;;;4971890;28;20042;-71
2023/01/06 09:46:30;;;;;;;12.30;11.48;;;9.50;99.90;;;;;;4971674;28;20169;-71
2023/01/06 09:49:18;;;;;;;10.82;10.32;;;9.50;99.90;;;;;;4976395;28;20121;-71
2023/01/06 09:51:45;;;;;;;9.60;9.10;;;9.40;99.90;;;;;;4979823;28;20077;-71
2023/01/06 09:54:29;;;;;;;10.18;9.38;;;9.40;99.90;;;;;;4979358;28;20065;-70
2023/01/06 09:57:04;;;;;;;11.55;10.85;;;9.30;99.90;;;;;;4974619;28;20042;-71
2023/01/06 09:59:40;;;;;;;9.98;9.35;;;9.30;99.90;;;;;;4974248;28;20837;-71
2023/01/06 10:02:20;;;;;;;9.55;9.05;;;9.30;99.90;;;;;;4973268;28;20046;-70
2023/01/06 10:04:46;;;;;;;9.88;9.18;;;9.30;99.90;;;;;;4971433;28;20156;-71
2023/01/06 10:07:36;;;;;;;9.30;8.70;;;9.30;99.90;;;;;;4972159;28;20068;-71
2023/01/06 10:10:19;;;;;;;7.47;7.07;;;9.30;99.90;;;;;;4978549;28;20050;-68
2023/01/06 10:13:29;;;;;;;10.40;9.60;;;9.30;99.90;;;;;;4972841;28;20056;-68
2023/01/06 10:16:03;;;;;;;10.75;10.05;;;9.30;99.90;;;;;;4952259;28;20039;-69
2023/01/06 10:18:50;;;;;;;10.88;10.20;;;9.40;99.90;;;;;;4935502;28;20647;-68
2023/01/06 10:22:03;;;;;;;10.00;9.32;;;9.40;99.90;;;;;;4964466;28;20070;-70
2023/01/06 10:24:39;;;;;;;10.50;9.80;;;9.40;99.90;;;;;;4912175;29;20135;-69
2023/01/06 10:27:31;;;;;;;11.73;11.00;;;9.40;99.90;;;;;;4972479;28;20290;-68
2023/01/06 10:30:00;;;;;;;10.88;9.90;;;9.40;99.90;;;;;;4973042;28;20069;-68
2023/01/06 10:32:31;;;;;;;9.23;8.82;;;9.40;99.90;;;;;;4974360;28;20084;-71
2023/01/06 10:34:59;;;;;;;9.00;8.52;;;9.50;99.90;;;;;;4977080;28;20535;-71
2023/01/06 10:37:35;;;;;;;7.82;7.35;;;9.50;99.90;;;;;;4978249;28;20710;-71
2023/01/06 10:40:16;;;;;;;8.15;7.72;;;9.40;99.90;;;;;;4980472;28;20418;-70
2023/01/06 10:43:02;;;;;;;7.32;6.97;;;9.40;99.90;;;;;;4973180;28;20092;-68
2023/01/06 10:45:46;;;;;;;7.00;6.70;;;9.40;99.90;;;;;;4975512;28;20402;-69
2023/01/06 10:48:19;;;;;;;7.57;6.97;;;9.40;99.90;;;;;;4974222;28;20049;-68
2023/01/06 10:50:46;;;;;;;7.47;7.13;;;9.40;99.90;;;;;;4979863;28;20133;-68
2023/01/06 10:53:15;;;;;;;7.45;7.05;;;9.50;99.90;;;;;;4978792;28;20050;-68
2023/01/06 10:55:53;;;;;;;8.45;7.82;;;9.50;99.90;;;;;;4977734;28;20417;-71
2023/01/06 10:58:29;;;;;;;8.85;8.20;;;9.50;99.90;;;;;;4976856;28;20352;-69
2023/01/06 11:00:59;;;;;;;8.25;7.85;;;9.60;99.90;;;;;;4972717;28;20052;-71
2023/01/06 11:03:27;;;;;;;8.88;8.15;;;9.60;99.90;;;;;;4974575;28;20350;-71
2023/01/06 11:06:07;;;;;;;7.05;6.72;;;9.60;99.90;;;;;;5014681;28;20114;-68
2023/01/06 11:08:36;;;;;;;7.03;6.57;;;9.60;99.90;;;;;;4976360;28;20484;-69
2023/01/06 11:11:10;;;;;;;8.40;7.80;;;9.50;99.90;;;;;;4974840;28;20627;-69
2023/01/06 11:14:02;;;;;;;9.48;9.07;;;9.60;99.90;;;;;;4980912;28;20058;-69
2023/01/06 11:16:34;;;;;;;10.73;9.75;;;9.70;99.90;;;;;;4973920;28;20053;-69
2023/01/06 11:19:07;;;;;;;7.20;6.80;;;9.70;99.90;;;;;;4977579;28;20070;-70
2023/01/06 11:21:48;;;;;;;5.68;5.28;;;9.60;99.90;;;;;;4971073;28;20194;-69
2023/01/06 11:24:21;;;;;;;4.45;4.10;;;9.50;99.90;;;;;;4995508;28;20122;-72
2023/01/06 11:26:54;;;;;;;4.38;3.97;;;9.30;99.90;;;;;;4966245;28;20484;-71
2023/01/06 11:29:27;;;;;;;3.85;3.55;;;9.20;99.90;;;;;;4990559;28;20057;-71
2023/01/06 11:31:56;;;;;;;4.80;4.40;;;9.20;99.90;;;;;;4973971;28;20052;-71
2023/01/06 11:34:27;;;;;;;5.03;4.47;;;9.20;99.90;;;;;;4966582;28;20049;-71
2023/01/06 11:36:55;;;;;;;4.55;4.13;;;9.20;99.90;;;;;;4977753;28;20046;-70
2023/01/06 11:39:30;;;;;;;13.00;9.35;;;9.10;99.90;;;;;;4977966;28;20045;-71
2023/01/06 11:42:03;;;;;;;6.07;4.40;;;9.10;99.90;;;;;;4970787;28;20046;-71
2023/01/06 11:44:33;;;;;;;4.65;3.78;;;9.10;99.90;;;;;;4975805;28;20065;-71
2023/01/06 11:47:23;;;;;;;7.88;4.78;;;9.20;99.90;;;;;;4977445;28;20130;-71
2023/01/06 11:49:59;;;;;;;5.88;5.03;;;9.20;99.90;;;;;;4974770;28;20260;-70
2023/01/06 11:52:37;;;;;;;9.60;8.70;;;9.20;99.90;;;;;;4977351;28;20057;-70
2023/01/06 11:55:06;;;;;;;7.30;4.88;;;9.20;99.90;;;;;;4976317;28;20042;-71
2023/01/06 11:58:03;;;;;;;7.35;5.05;;;9.30;99.90;;;;;;4975674;28;20197;-70
2023/01/06 12:00:46;;;;;;;5.20;4.18;;;9.30;99.90;;;;;;4967747;28;20041;-72
2023/01/06 12:03:16;;;;;;;6.40;4.50;;;9.20;99.90;;;;;;4971197;28;20046;-70
2023/01/06 12:06:20;;;;;;;5.22;4.72;;;9.20;99.90;;;;;;4975318;28;20050;-70
2023/01/06 12:09:11;;;;;;;4.65;4.25;;;9.30;99.90;;;;;;4973089;28;20500;-70
2023/01/06 12:11:52;;;;;;;6.82;5.88;;;9.30;99.90;;;;;;4983624;28;20551;-71
2023/01/06 12:14:21;;;;;;;5.75;5.10;;;9.30;99.90;;;;;;4991584;28;20046;-70
2023/01/06 12:17:05;;;;;;;8.02;5.72;;;9.40;99.90;;;;;;4971440;28;20046;-71
2023/01/06 12:19:44;;;;;;;7.05;6.25;;;9.40;99.90;;;;;;4975738;28;20050;-71
2023/01/06 12:22:29;;;;;;;8.20;7.03;;;9.40;99.90;;;;;;4967943;28;20112;-71
2023/01/06 12:24:57;;;;;;;;;;;9.40;99.90;;;;;;4974151;28;20417;-69
2023/01/06 12:27:48;;;;;;;8.05;7.25;;;9.40;99.90;;;;;;5014769;28;19921;-68
2023/01/06 12:30:41;;;;;;;8.77;7.60;;;9.40;99.90;;;;;;4968401;28;20469;-72
2023/01/06 12:33:25;;;;;;;10.57;8.52;;;9.50;99.90;;;;;;5004868;28;20662;-71
2023/01/06 12:36:01;;;;;;;8.98;8.05;;;9.50;99.90;;;;;;4975096;28;20520;-71
2023/01/06 12:38:55;;;;;;;8.77;7.93;;;9.60;99.90;;;;;;4974085;28;21401;-71
2023/01/06 12:41:38;;;;;;;9.27;7.82;;;9.60;99.90;;;;;;4971399;28;20137;-71
2023/01/06 12:44:29;;;;;;;9.48;8.57;;;9.60;99.90;;;;;;4971297;28;20451;-71
2023/01/06 12:47:15;;;;;;;9.85;8.20;;;9.60;99.90;;;;;;4974538;28;20056;-71
2023/01/06 12:50:02;;;;;;;;;;;9.60;99.90;;;;;;4980891;28;20057;-71
2023/01/06 12:52:56;;;;;;;13.15;10.18;;;9.60;99.90;;;;;;4974104;28;20134;-68
2023/01/06 12:55:39;;;;;;;12.27;10.65;;;9.60;99.90;;;;;;4972173;28;20220;-71
2023/01/06 12:58:20;;;;;;;13.32;10.82;;;9.70;99.90;;;;;;4974536;28;20054;-71
2023/01/06 13:01:03;;;;;;;16.50;13.88;;;9.60;99.90;;;;;;4970923;28;20562;-71
2023/01/06 13:03:46;;;;;;;11.70;10.55;;;9.60;99.90;;;;;;4973247;28;20692;-68
2023/01/06 13:06:24;;;;;;;12.73;11.45;;;9.60;99.90;;;;;;4971028;28;20497;-70
2023/01/06 13:09:09;;;;;;;12.75;11.45;;;9.60;99.90;;;;;;5006365;28;20468;-71
2023/01/06 13:11:58;;;;;;;14.77;12.82;;;9.70;99.90;;;;;;5006367;28;20125;-71
2023/01/06 13:15:12;;;;;;;11.00;9.57;;;9.60;99.90;;;;;;4964840;28;20134;-71